AFR195 VTBS-LFPG
Flight info
| Callsign | AFR195 |
|---|---|
| Flight time | N/A |
| Altitude | 36000 |
| Route | TARED P646 DOPID DCT CEA R460 LKN M890 JAL R594 DPN G333 MERUN L750 MURLI/N0499F380 L750 RANAH B801 NINOP B475 DOLOS B449 ETRAP B447 KRS B143 TUNEK/N0489F400 A909 RODAR M11 ERLEV T923 SUBUT T916 MATAL DCT REBLO UM11 CRM UL746 ODERO DCT OPT DCT SOKRU DCT ABETI DCT PEROL DCT RENKA L610 STAUB/N0402F240 L610 MAMOR DCT ASPAT DCT VIBOM DCT BETEX DCT IDOSA DCT TOLVU/N0486F410 DCT RAPOR DCT VEDUS |
| Aircraft | A359/H-SDE2E3GHIJ3J4J5LM1ORWXY/LB1D1 |
Departure
| Time | 2026-05-05 20:18 |
|---|---|
| Airport | Suvarnabhumi Airport (VTBS) |
Arrival
| Time | N/A |
|---|---|
| Airport | Charles de Gaulle International Airport (LFPG) |
| Time | Latitude | Longitude | Altitude | Speed | Heading |
|---|---|---|---|---|---|
| 2026-05-05 19:30 | 13.68927 | 100.74528 | 20 ft | 0 kts | 103° |
| 2026-05-05 20:05 | 13.68928 | 100.74523 | 21 ft | 3 kts | 103° |
| 2026-05-05 20:05 | 13.68934 | 100.74497 | 23 ft | 4 kts | 103° |
| 2026-05-05 20:05 | 13.68940 | 100.74472 | 21 ft | 4 kts | 101° |
| 2026-05-05 20:05 | 13.68941 | 100.74452 | 21 ft | 4 kts | 63° |
| 2026-05-05 20:06 | 13.68928 | 100.74435 | 23 ft | 4 kts | 28° |
| 2026-05-05 20:06 | 13.68904 | 100.74425 | 21 ft | 4 kts | 15° |
| 2026-05-05 20:06 | 13.68897 | 100.74423 | 24 ft | 0 kts | 14° |
| 2026-05-05 20:09 | 13.68909 | 100.74426 | 20 ft | 5 kts | 14° |
| 2026-05-05 20:09 | 13.68946 | 100.74436 | 20 ft | 6 kts | 14° |
| 2026-05-05 20:10 | 13.68975 | 100.74444 | 20 ft | 7 kts | 14° |
| 2026-05-05 20:10 | 13.69021 | 100.74456 | 20 ft | 7 kts | 14° |
| 2026-05-05 20:10 | 13.69072 | 100.74469 | 20 ft | 8 kts | 14° |
| 2026-05-05 20:10 | 13.69123 | 100.74462 | 21 ft | 7 kts | 324° |
| 2026-05-05 20:11 | 13.69147 | 100.74417 | 20 ft | 7 kts | 288° |
| 2026-05-05 20:11 | 13.69161 | 100.74364 | 20 ft | 8 kts | 284° |
| 2026-05-05 20:11 | 13.69176 | 100.74307 | 20 ft | 9 kts | 284° |
| 2026-05-05 20:11 | 13.69192 | 100.74245 | 20 ft | 9 kts | 288° |
| 2026-05-05 20:12 | 13.69238 | 100.74214 | 20 ft | 8 kts | 359° |
| 2026-05-05 20:12 | 13.69295 | 100.74227 | 20 ft | 9 kts | 14° |
| 2026-05-05 20:12 | 13.69357 | 100.74243 | 19 ft | 10 kts | 14° |
| 2026-05-05 20:12 | 13.69422 | 100.74261 | 19 ft | 10 kts | 14° |
| 2026-05-05 20:13 | 13.69493 | 100.74279 | 19 ft | 11 kts | 14° |
| 2026-05-05 20:13 | 13.69566 | 100.74299 | 20 ft | 11 kts | 14° |
| 2026-05-05 20:13 | 13.69642 | 100.74318 | 20 ft | 11 kts | 14° |
| 2026-05-05 20:13 | 13.69722 | 100.74339 | 19 ft | 12 kts | 14° |
| 2026-05-05 20:14 | 13.69804 | 100.74360 | 19 ft | 12 kts | 14° |
| 2026-05-05 20:14 | 13.69890 | 100.74383 | 20 ft | 13 kts | 15° |
| 2026-05-05 20:14 | 13.69974 | 100.74406 | 20 ft | 13 kts | 15° |
| 2026-05-05 20:14 | 13.70059 | 100.74428 | 20 ft | 13 kts | 14° |
| 2026-05-05 20:15 | 13.70147 | 100.74451 | 20 ft | 13 kts | 14° |
| 2026-05-05 20:15 | 13.70238 | 100.74475 | 20 ft | 14 kts | 14° |
| 2026-05-05 20:15 | 13.70310 | 100.74481 | 20 ft | 10 kts | 341° |
| 2026-05-05 20:15 | 13.70341 | 100.74430 | 20 ft | 9 kts | 276° |
| 2026-05-05 20:16 | 13.70342 | 100.74369 | 21 ft | 8 kts | 268° |
| 2026-05-05 20:16 | 13.70328 | 100.74314 | 23 ft | 8 kts | 236° |
| 2026-05-05 20:16 | 13.70284 | 100.74292 | 21 ft | 7 kts | 187° |
| 2026-05-05 20:16 | 13.70223 | 100.74280 | 22 ft | 17 kts | 193° |
| 2026-05-05 20:17 | 13.69921 | 100.74200 | 20 ft | 73 kts | 194° |
| 2026-05-05 20:17 | 13.69255 | 100.74025 | 19 ft | 123 kts | 194° |
| 2026-05-05 20:17 | 13.68288 | 100.73771 | 21 ft | 165 kts | 194° |
| 2026-05-05 20:17 | 13.67110 | 100.73458 | 430 ft | 172 kts | 195° |
| 2026-05-05 20:18 | 13.65936 | 100.73149 | 930 ft | 177 kts | 194° |
| 2026-05-05 20:18 | 13.64730 | 100.72834 | 1424 ft | 181 kts | 194° |
| 2026-05-05 20:18 | 13.63509 | 100.72513 | 1982 ft | 181 kts | 194° |
| 2026-05-05 20:18 | 13.62296 | 100.72194 | 2459 ft | 180 kts | 194° |
| 2026-05-05 20:19 | 13.61032 | 100.71861 | 2676 ft | 195 kts | 194° |
| 2026-05-05 20:19 | 13.59663 | 100.71501 | 2858 ft | 211 kts | 194° |
| 2026-05-05 20:19 | 13.58179 | 100.71111 | 3043 ft | 229 kts | 194° |
| 2026-05-05 20:19 | 13.56575 | 100.70689 | 3285 ft | 245 kts | 194° |
| 2026-05-05 20:20 | 13.54899 | 100.70189 | 3594 ft | 258 kts | 202° |
| 2026-05-05 20:20 | 13.53471 | 100.69062 | 4006 ft | 264 kts | 235° |
| 2026-05-05 20:20 | 13.52887 | 100.67277 | 4486 ft | 269 kts | 269° |
| 2026-05-05 20:20 | 13.53219 | 100.65408 | 4993 ft | 272 kts | 287° |
| 2026-05-05 20:21 | 13.53787 | 100.63544 | 5513 ft | 275 kts | 287° |
| 2026-05-05 20:21 | 13.54328 | 100.61653 | 6056 ft | 278 kts | 285° |
| 2026-05-05 20:21 | 13.54953 | 100.59764 | 6559 ft | 281 kts | 296° |
| 2026-05-05 20:21 | 13.56151 | 100.58179 | 7047 ft | 284 kts | 322° |
| 2026-05-05 20:22 | 13.57922 | 100.57308 | 7548 ft | 286 kts | 349° |
| 2026-05-05 20:22 | 13.59915 | 100.57190 | 8103 ft | 287 kts | 2° |
| 2026-05-05 20:22 | 13.61898 | 100.57271 | 8675 ft | 289 kts | 3° |
| 2026-05-05 20:22 | 13.63919 | 100.57352 | 9225 ft | 292 kts | 2° |
| 2026-05-05 20:23 | 13.65963 | 100.57423 | 9803 ft | 295 kts | 2° |
| 2026-05-05 20:23 | 13.68035 | 100.57491 | 10243 ft | 301 kts | 2° |
| 2026-05-05 20:23 | 13.70174 | 100.57553 | 10492 ft | 314 kts | 2° |
| 2026-05-05 20:23 | 13.72409 | 100.57613 | 10748 ft | 327 kts | 2° |
| 2026-05-05 20:24 | 13.74732 | 100.57675 | 10998 ft | 339 kts | 2° |
| 2026-05-05 20:24 | 13.77125 | 100.57629 | 11217 ft | 352 kts | 353° |
| 2026-05-05 20:24 | 13.79448 | 100.56839 | 11436 ft | 363 kts | 332° |
| 2026-05-05 20:24 | 13.81638 | 100.55489 | 11714 ft | 371 kts | 328° |
| 2026-05-05 20:25 | 13.83845 | 100.54060 | 12097 ft | 376 kts | 328° |
| 2026-05-05 20:25 | 13.86084 | 100.52626 | 12516 ft | 379 kts | 328° |
| 2026-05-05 20:25 | 13.88338 | 100.51194 | 12942 ft | 382 kts | 328° |
| 2026-05-05 20:25 | 13.90581 | 100.49770 | 13368 ft | 384 kts | 328° |
| 2026-05-05 20:26 | 13.92688 | 100.48079 | 13758 ft | 388 kts | 314° |
| 2026-05-05 20:26 | 13.94198 | 100.45773 | 14102 ft | 390 kts | 293° |
| 2026-05-05 20:26 | 13.94913 | 100.43077 | 14472 ft | 392 kts | 279° |
| 2026-05-05 20:26 | 13.95302 | 100.40280 | 14825 ft | 395 kts | 278° |
| 2026-05-05 20:27 | 13.95671 | 100.37473 | 15186 ft | 397 kts | 278° |
| 2026-05-05 20:27 | 13.96050 | 100.34668 | 15549 ft | 399 kts | 278° |
| 2026-05-05 20:27 | 13.96440 | 100.31837 | 15909 ft | 401 kts | 278° |
| 2026-05-05 20:27 | 13.96838 | 100.28979 | 16255 ft | 404 kts | 278° |
| 2026-05-05 20:28 | 13.97265 | 100.26117 | 16604 ft | 406 kts | 281° |
| 2026-05-05 20:28 | 13.98131 | 100.23348 | 16940 ft | 408 kts | 297° |
| 2026-05-05 20:28 | 13.99474 | 100.21040 | 17261 ft | 409 kts | 304° |
| 2026-05-05 20:28 | 14.01074 | 100.18601 | 17603 ft | 411 kts | 304° |
| 2026-05-05 20:29 | 14.02678 | 100.16164 | 17930 ft | 414 kts | 304° |
| 2026-05-05 20:29 | 14.04295 | 100.13691 | 18259 ft | 416 kts | 304° |
| 2026-05-05 20:29 | 14.05908 | 100.11215 | 18563 ft | 417 kts | 304° |
| 2026-05-05 20:29 | 14.07531 | 100.08718 | 18851 ft | 419 kts | 304° |
| 2026-05-05 20:30 | 14.09154 | 100.06219 | 19139 ft | 421 kts | 304° |
| 2026-05-05 20:30 | 14.10789 | 100.03697 | 19437 ft | 423 kts | 304° |
| 2026-05-05 20:30 | 14.12404 | 100.01207 | 19716 ft | 425 kts | 304° |
| 2026-05-05 20:30 | 14.14049 | 99.98668 | 20010 ft | 426 kts | 304° |
| 2026-05-05 20:31 | 14.15699 | 99.96120 | 20309 ft | 428 kts | 304° |
| 2026-05-05 20:31 | 14.17354 | 99.93564 | 20602 ft | 430 kts | 304° |
| 2026-05-05 20:31 | 14.19019 | 99.90990 | 20885 ft | 432 kts | 303° |
| 2026-05-05 20:31 | 14.20688 | 99.88408 | 21170 ft | 433 kts | 304° |
| 2026-05-05 20:32 | 14.22365 | 99.85815 | 21470 ft | 435 kts | 304° |
| 2026-05-05 20:32 | 14.24052 | 99.83206 | 21754 ft | 437 kts | 304° |
| 2026-05-05 20:32 | 14.25724 | 99.80620 | 22037 ft | 439 kts | 303° |
| 2026-05-05 20:32 | 14.27420 | 99.77994 | 22329 ft | 441 kts | 303° |
| 2026-05-05 20:33 | 14.29121 | 99.75361 | 22613 ft | 443 kts | 304° |
| 2026-05-05 20:33 | 14.30838 | 99.72702 | 22896 ft | 445 kts | 303° |
| 2026-05-05 20:33 | 14.32550 | 99.70050 | 23177 ft | 447 kts | 303° |
| 2026-05-05 20:33 | 14.34282 | 99.67366 | 23462 ft | 449 kts | 303° |
| 2026-05-05 20:34 | 14.36021 | 99.64670 | 23716 ft | 451 kts | 303° |
| 2026-05-05 20:34 | 14.37761 | 99.61972 | 23936 ft | 452 kts | 303° |
| 2026-05-05 20:34 | 14.39504 | 99.59268 | 24179 ft | 454 kts | 303° |
| 2026-05-05 20:34 | 14.41261 | 99.56541 | 24426 ft | 456 kts | 303° |
| 2026-05-05 20:35 | 14.43012 | 99.53817 | 24675 ft | 457 kts | 303° |
| 2026-05-05 20:35 | 14.44654 | 99.50996 | 24932 ft | 459 kts | 299° |
| 2026-05-05 20:35 | 14.46186 | 99.48098 | 25206 ft | 460 kts | 298° |
| 2026-05-05 20:35 | 14.47670 | 99.45162 | 25485 ft | 462 kts | 297° |
| 2026-05-05 20:36 | 14.49139 | 99.42200 | 25759 ft | 464 kts | 297° |
| 2026-05-05 20:36 | 14.50606 | 99.39236 | 26069 ft | 466 kts | 297° |
| 2026-05-05 20:36 | 14.52089 | 99.36250 | 26355 ft | 468 kts | 297° |
| 2026-05-05 20:36 | 14.53580 | 99.33266 | 26664 ft | 470 kts | 297° |
| 2026-05-05 20:37 | 14.55089 | 99.30261 | 26961 ft | 472 kts | 297° |
| 2026-05-05 20:37 | 14.56605 | 99.27249 | 27274 ft | 473 kts | 297° |
| 2026-05-05 20:37 | 14.58108 | 99.24264 | 27570 ft | 475 kts | 297° |
| 2026-05-05 20:37 | 14.59643 | 99.21218 | 27863 ft | 478 kts | 297° |
| 2026-05-05 20:38 | 14.61181 | 99.18165 | 28149 ft | 480 kts | 297° |
| 2026-05-05 20:38 | 14.62723 | 99.15102 | 28446 ft | 482 kts | 297° |
| 2026-05-05 20:38 | 14.64268 | 99.12030 | 28755 ft | 484 kts | 297° |
| 2026-05-05 20:38 | 14.65822 | 99.08939 | 29046 ft | 485 kts | 297° |
| 2026-05-05 20:39 | 14.67381 | 99.05837 | 29325 ft | 487 kts | 297° |
| 2026-05-05 20:39 | 14.68938 | 99.02736 | 29603 ft | 489 kts | 297° |
| 2026-05-05 20:39 | 14.70510 | 98.99605 | 29868 ft | 491 kts | 297° |
| 2026-05-05 20:39 | 14.72072 | 98.96492 | 30087 ft | 492 kts | 297° |
| 2026-05-05 20:40 | 14.73668 | 98.93311 | 30306 ft | 494 kts | 297° |
| 2026-05-05 20:40 | 14.75251 | 98.90155 | 30533 ft | 495 kts | 297° |
| 2026-05-05 20:40 | 14.76835 | 98.86994 | 30753 ft | 497 kts | 297° |
| 2026-05-05 20:40 | 14.78406 | 98.83859 | 30937 ft | 498 kts | 297° |
| 2026-05-05 20:41 | 14.80006 | 98.80665 | 31133 ft | 500 kts | 297° |
| 2026-05-05 20:41 | 14.81605 | 98.77470 | 31316 ft | 501 kts | 297° |
| 2026-05-05 20:41 | 14.83211 | 98.74260 | 31512 ft | 503 kts | 297° |
| 2026-05-05 20:41 | 14.84817 | 98.71049 | 31721 ft | 503 kts | 297° |
| 2026-05-05 20:42 | 14.86424 | 98.67836 | 32002 ft | 502 kts | 297° |
| 2026-05-05 20:42 | 14.88025 | 98.64632 | 32267 ft | 501 kts | 297° |
| 2026-05-05 20:42 | 14.89626 | 98.61426 | 32541 ft | 500 kts | 297° |
| 2026-05-05 20:42 | 14.91205 | 98.58264 | 32832 ft | 499 kts | 297° |
| 2026-05-05 20:43 | 14.92798 | 98.55071 | 33108 ft | 498 kts | 297° |
| 2026-05-05 20:43 | 14.94383 | 98.51895 | 33371 ft | 497 kts | 297° |
| 2026-05-05 20:43 | 14.95966 | 98.48720 | 33637 ft | 496 kts | 297° |
| 2026-05-05 20:43 | 14.97544 | 98.45556 | 33843 ft | 496 kts | 297° |
| 2026-05-05 20:44 | 14.99123 | 98.42385 | 33886 ft | 496 kts | 297° |
| 2026-05-05 20:44 | 15.02279 | 98.36048 | 33885 ft | 495 kts | 297° |
| 2026-05-05 20:45 | 15.06992 | 98.26573 | 34128 ft | 495 kts | 297° |
| 2026-05-05 20:45 | 15.08566 | 98.23406 | 34371 ft | 493 kts | 297° |
| 2026-05-05 20:45 | 15.10132 | 98.20254 | 34576 ft | 492 kts | 297° |
| 2026-05-05 20:46 | 15.11692 | 98.17092 | 34761 ft | 492 kts | 297° |
| 2026-05-05 20:46 | 15.13229 | 98.13934 | 34937 ft | 491 kts | 297° |
| 2026-05-05 20:46 | 15.14759 | 98.10768 | 35127 ft | 491 kts | 297° |
| 2026-05-05 20:46 | 15.16287 | 98.07605 | 35326 ft | 490 kts | 297° |
| 2026-05-05 20:47 | 15.17795 | 98.04484 | 35511 ft | 489 kts | 297° |
| 2026-05-05 20:47 | 15.19319 | 98.01336 | 35720 ft | 488 kts | 297° |
| 2026-05-05 20:47 | 15.20838 | 97.98200 | 35841 ft | 488 kts | 297° |
| 2026-05-05 20:47 | 15.22365 | 97.95051 | 35860 ft | 491 kts | 297° |
| 2026-05-05 20:48 | 15.25449 | 97.88688 | 35856 ft | 494 kts | 297° |
| 2026-05-05 20:48 | 15.28529 | 97.82329 | 35853 ft | 493 kts | 297° |
| 2026-05-05 20:49 | 15.31607 | 97.75968 | 35851 ft | 493 kts | 297° |
| 2026-05-05 20:49 | 15.34679 | 97.69612 | 35842 ft | 493 kts | 297° |
| 2026-05-05 20:50 | 15.37231 | 97.64330 | 35844 ft | 493 kts | 297° |
| 2026-05-05 20:50 | 15.40798 | 97.56938 | 35842 ft | 493 kts | 297° |
| 2026-05-05 20:51 | 15.43862 | 97.50583 | 35840 ft | 493 kts | 297° |
| 2026-05-05 20:51 | 15.46989 | 97.44260 | 35841 ft | 493 kts | 298° |
| 2026-05-05 20:52 | 15.50213 | 97.38002 | 35839 ft | 493 kts | 298° |
| 2026-05-05 20:52 | 15.53443 | 97.31726 | 35840 ft | 493 kts | 298° |
| 2026-05-05 20:53 | 15.56635 | 97.25475 | 35837 ft | 492 kts | 298° |
| 2026-05-05 20:53 | 15.59833 | 97.19186 | 35838 ft | 492 kts | 298° |
| 2026-05-05 20:54 | 15.63021 | 97.12909 | 35838 ft | 492 kts | 298° |
| 2026-05-05 20:54 | 15.66212 | 97.06624 | 35839 ft | 492 kts | 298° |
| 2026-05-05 20:55 | 15.69404 | 97.00331 | 35836 ft | 492 kts | 298° |
| 2026-05-05 20:55 | 15.72571 | 96.94082 | 35832 ft | 492 kts | 298° |
| 2026-05-05 20:56 | 15.75757 | 96.87791 | 35832 ft | 492 kts | 298° |
| 2026-05-05 20:56 | 15.78943 | 96.81494 | 35828 ft | 492 kts | 298° |
| 2026-05-05 20:57 | 15.81586 | 96.76266 | 35830 ft | 491 kts | 298° |
| 2026-05-05 20:57 | 15.84765 | 96.69971 | 35829 ft | 491 kts | 298° |
| 2026-05-05 20:58 | 15.87923 | 96.63713 | 35830 ft | 491 kts | 298° |
| 2026-05-05 20:58 | 15.91095 | 96.57424 | 35828 ft | 491 kts | 298° |
| 2026-05-05 20:59 | 15.94263 | 96.51134 | 35826 ft | 491 kts | 298° |
| 2026-05-05 20:59 | 15.97414 | 96.44875 | 35826 ft | 491 kts | 298° |
| 2026-05-05 21:00 | 16.00572 | 96.38594 | 35825 ft | 490 kts | 298° |
| 2026-05-05 21:00 | 16.03734 | 96.32301 | 35829 ft | 490 kts | 298° |
| 2026-05-05 21:01 | 16.06887 | 96.26021 | 35824 ft | 490 kts | 298° |
| 2026-05-05 21:01 | 16.10035 | 96.19743 | 35827 ft | 489 kts | 298° |
| 2026-05-05 21:02 | 16.13175 | 96.13476 | 35826 ft | 488 kts | 298° |
| 2026-05-05 21:02 | 16.16290 | 96.07254 | 35830 ft | 488 kts | 298° |
| 2026-05-05 21:03 | 16.19425 | 96.00986 | 35831 ft | 487 kts | 298° |
| 2026-05-05 21:03 | 16.22558 | 95.94718 | 35828 ft | 487 kts | 298° |
| 2026-05-05 21:04 | 16.25676 | 95.88473 | 35831 ft | 486 kts | 298° |
| 2026-05-05 21:04 | 16.28777 | 95.82257 | 35828 ft | 486 kts | 297° |
| 2026-05-05 21:05 | 16.31887 | 95.76017 | 35830 ft | 486 kts | 297° |
| 2026-05-05 21:05 | 16.35002 | 95.69760 | 35829 ft | 485 kts | 297° |
| 2026-05-05 21:06 | 16.38096 | 95.63542 | 35830 ft | 485 kts | 297° |
| 2026-05-05 21:06 | 16.41197 | 95.57301 | 35831 ft | 484 kts | 297° |
| 2026-05-05 21:07 | 16.44290 | 95.51072 | 35829 ft | 484 kts | 297° |
| 2026-05-05 21:07 | 16.47386 | 95.44832 | 35830 ft | 484 kts | 297° |
| 2026-05-05 21:08 | 16.50461 | 95.38628 | 35831 ft | 484 kts | 297° |
| 2026-05-05 21:08 | 16.53545 | 95.32401 | 35829 ft | 484 kts | 297° |
| 2026-05-05 21:09 | 16.56634 | 95.26158 | 35827 ft | 484 kts | 297° |
| 2026-05-05 21:09 | 16.59717 | 95.19920 | 35825 ft | 484 kts | 297° |
| 2026-05-05 21:10 | 16.62800 | 95.13677 | 35827 ft | 484 kts | 297° |
| 2026-05-05 21:10 | 16.65860 | 95.07475 | 35827 ft | 483 kts | 297° |
| 2026-05-05 21:11 | 16.68939 | 95.01229 | 35826 ft | 483 kts | 296° |
| 2026-05-05 21:11 | 16.72013 | 94.94986 | 35825 ft | 483 kts | 296° |
| 2026-05-05 21:12 | 16.75071 | 94.88772 | 35826 ft | 483 kts | 296° |
| 2026-05-05 21:12 | 16.78146 | 94.82517 | 35828 ft | 483 kts | 296° |
| 2026-05-05 21:13 | 16.81455 | 94.76407 | 35828 ft | 484 kts | 305° |
| 2026-05-05 21:13 | 16.85579 | 94.70835 | 35827 ft | 485 kts | 307° |
| 2026-05-05 21:14 | 16.89805 | 94.65404 | 35824 ft | 485 kts | 308° |
| 2026-05-05 21:14 | 16.94070 | 94.59949 | 35824 ft | 485 kts | 307° |
| 2026-05-05 21:15 | 16.98330 | 94.54472 | 35823 ft | 484 kts | 307° |
| 2026-05-05 21:15 | 17.02546 | 94.49032 | 35824 ft | 484 kts | 307° |
| 2026-05-05 21:16 | 17.06782 | 94.43556 | 35822 ft | 484 kts | 307° |
| 2026-05-05 21:16 | 17.11016 | 94.38081 | 35822 ft | 484 kts | 307° |
| 2026-05-05 21:17 | 17.15242 | 94.32612 | 35822 ft | 483 kts | 307° |
| 2026-05-05 21:17 | 17.19473 | 94.27132 | 35822 ft | 483 kts | 307° |
| 2026-05-05 21:18 | 17.23669 | 94.21693 | 35822 ft | 483 kts | 307° |
| 2026-05-05 21:18 | 17.27892 | 94.16215 | 35818 ft | 483 kts | 307° |
| 2026-05-05 21:19 | 17.32118 | 94.10728 | 35825 ft | 483 kts | 307° |
| 2026-05-05 21:19 | 17.36338 | 94.05245 | 35825 ft | 483 kts | 307° |
| 2026-05-05 21:20 | 17.40528 | 93.99795 | 35822 ft | 483 kts | 307° |
| 2026-05-05 21:20 | 17.44738 | 93.94317 | 35821 ft | 483 kts | 307° |
| 2026-05-05 21:21 | 17.48953 | 93.88826 | 35824 ft | 483 kts | 307° |
| 2026-05-05 21:21 | 17.53159 | 93.83343 | 35820 ft | 483 kts | 307° |
| 2026-05-05 21:22 | 17.57364 | 93.77858 | 35822 ft | 482 kts | 307° |
| 2026-05-05 21:22 | 17.61570 | 93.72365 | 35821 ft | 482 kts | 307° |
| 2026-05-05 21:23 | 17.65754 | 93.66898 | 35819 ft | 482 kts | 307° |
| 2026-05-05 21:23 | 17.69948 | 93.61412 | 35825 ft | 482 kts | 307° |
| 2026-05-05 21:24 | 17.74149 | 93.55912 | 35825 ft | 482 kts | 307° |
| 2026-05-05 21:24 | 17.78339 | 93.50424 | 35824 ft | 482 kts | 307° |
| 2026-05-05 21:25 | 17.82496 | 93.44973 | 35823 ft | 482 kts | 307° |
| 2026-05-05 21:25 | 17.86685 | 93.39476 | 35823 ft | 482 kts | 306° |
| 2026-05-05 21:26 | 17.90868 | 93.33982 | 35823 ft | 481 kts | 306° |
| 2026-05-05 21:26 | 17.95046 | 93.28490 | 35826 ft | 481 kts | 306° |
| 2026-05-05 21:27 | 17.99226 | 93.22991 | 35828 ft | 481 kts | 306° |
| 2026-05-05 21:27 | 18.03406 | 93.17488 | 35827 ft | 481 kts | 306° |
| 2026-05-05 21:28 | 18.07553 | 93.12022 | 35826 ft | 481 kts | 306° |
| 2026-05-05 21:28 | 18.11725 | 93.06519 | 35826 ft | 481 kts | 306° |
| 2026-05-05 21:29 | 18.15910 | 93.00996 | 35823 ft | 481 kts | 306° |
| 2026-05-05 21:29 | 18.20062 | 92.95509 | 35824 ft | 481 kts | 306° |
| 2026-05-05 21:30 | 18.24212 | 92.90022 | 35823 ft | 480 kts | 306° |
| 2026-05-05 21:30 | 18.28371 | 92.84518 | 35822 ft | 480 kts | 306° |
| 2026-05-05 21:31 | 18.32539 | 92.78998 | 35824 ft | 480 kts | 306° |
| 2026-05-05 21:31 | 18.36694 | 92.73489 | 35827 ft | 480 kts | 306° |
| 2026-05-05 21:32 | 18.40852 | 92.67972 | 35824 ft | 480 kts | 306° |
| 2026-05-05 21:32 | 18.44979 | 92.62491 | 35826 ft | 480 kts | 306° |
| 2026-05-05 21:33 | 18.49123 | 92.56983 | 35826 ft | 480 kts | 306° |
| 2026-05-05 21:33 | 18.53274 | 92.51461 | 35826 ft | 480 kts | 306° |
| 2026-05-05 21:34 | 18.57417 | 92.45945 | 35826 ft | 480 kts | 306° |
| 2026-05-05 21:34 | 18.61554 | 92.40431 | 35825 ft | 480 kts | 306° |
| 2026-05-05 21:35 | 18.65693 | 92.34910 | 35820 ft | 480 kts | 306° |
| 2026-05-05 21:35 | 18.69805 | 92.29422 | 35827 ft | 480 kts | 306° |
| 2026-05-05 21:36 | 18.73940 | 92.23897 | 35823 ft | 480 kts | 306° |
| 2026-05-05 21:36 | 18.78073 | 92.18369 | 35826 ft | 480 kts | 306° |
| 2026-05-05 21:37 | 18.82210 | 92.12833 | 35824 ft | 480 kts | 306° |
| 2026-05-05 21:37 | 18.86345 | 92.07293 | 35824 ft | 480 kts | 306° |
| 2026-05-05 21:38 | 18.90472 | 92.01759 | 35823 ft | 480 kts | 306° |
| 2026-05-05 21:38 | 18.94566 | 91.96247 | 35810 ft | 480 kts | 305° |
| 2026-05-05 21:39 | 18.98642 | 91.90660 | 35829 ft | 480 kts | 305° |
| 2026-05-05 21:39 | 19.02714 | 91.85064 | 35818 ft | 480 kts | 305° |
| 2026-05-05 21:40 | 19.06792 | 91.79467 | 35816 ft | 480 kts | 305° |
| 2026-05-05 21:40 | 19.10836 | 91.73922 | 35832 ft | 479 kts | 305° |
| 2026-05-05 21:41 | 19.14917 | 91.68323 | 35816 ft | 479 kts | 305° |
| 2026-05-05 21:41 | 19.18989 | 91.62730 | 35832 ft | 479 kts | 305° |
| 2026-05-05 21:42 | 19.23064 | 91.57126 | 35819 ft | 479 kts | 305° |
| 2026-05-05 21:42 | 19.27100 | 91.51572 | 35821 ft | 479 kts | 305° |
| 2026-05-05 21:43 | 19.31164 | 91.45975 | 35820 ft | 479 kts | 304° |
| 2026-05-05 21:43 | 19.35230 | 91.40368 | 35821 ft | 479 kts | 304° |
| 2026-05-05 21:44 | 19.39286 | 91.34772 | 35821 ft | 479 kts | 304° |
| 2026-05-05 21:44 | 19.43318 | 91.29203 | 35821 ft | 479 kts | 304° |
| 2026-05-05 21:45 | 19.47378 | 91.23590 | 35822 ft | 479 kts | 304° |
| 2026-05-05 21:45 | 19.50739 | 91.18939 | 35823 ft | 479 kts | 304° |
| 2026-05-05 21:46 | 19.54797 | 91.13320 | 35827 ft | 479 kts | 304° |
| 2026-05-05 21:46 | 19.58849 | 91.07704 | 35824 ft | 479 kts | 304° |
| 2026-05-05 21:47 | 19.62896 | 91.02088 | 35823 ft | 479 kts | 304° |
| 2026-05-05 21:47 | 19.66920 | 90.96500 | 35826 ft | 479 kts | 304° |
| 2026-05-05 21:48 | 19.70969 | 90.90873 | 35821 ft | 479 kts | 304° |
| 2026-05-05 21:48 | 19.75007 | 90.85254 | 35821 ft | 479 kts | 304° |
| 2026-05-05 21:49 | 19.79047 | 90.79628 | 35822 ft | 479 kts | 304° |
| 2026-05-05 21:49 | 19.83059 | 90.74036 | 35821 ft | 479 kts | 304° |
| 2026-05-05 21:50 | 19.87099 | 90.68399 | 35821 ft | 479 kts | 304° |
| 2026-05-05 21:50 | 19.91139 | 90.62757 | 35821 ft | 479 kts | 304° |
| 2026-05-05 21:51 | 19.95170 | 90.57123 | 35823 ft | 479 kts | 304° |
| 2026-05-05 21:51 | 19.99199 | 90.51484 | 35822 ft | 479 kts | 304° |
| 2026-05-05 21:52 | 20.05240 | 90.43022 | 35818 ft | 479 kts | 304° |
| 2026-05-05 21:53 | 20.09245 | 90.37405 | 35821 ft | 479 kts | 304° |
| 2026-05-05 21:53 | 20.13267 | 90.31759 | 35820 ft | 478 kts | 304° |
| 2026-05-05 21:54 | 20.17293 | 90.26100 | 35818 ft | 478 kts | 304° |
| 2026-05-05 21:54 | 20.21305 | 90.20456 | 35815 ft | 478 kts | 304° |
| 2026-05-05 21:55 | 20.25321 | 90.14802 | 35816 ft | 478 kts | 304° |
| 2026-05-05 21:55 | 20.29334 | 90.09147 | 35815 ft | 478 kts | 304° |
| 2026-05-05 21:56 | 20.33326 | 90.03515 | 35818 ft | 478 kts | 304° |
| 2026-05-05 21:56 | 20.37335 | 89.97854 | 35814 ft | 478 kts | 304° |
| 2026-05-05 21:57 | 20.41341 | 89.92192 | 35820 ft | 478 kts | 304° |
| 2026-05-05 21:57 | 20.45319 | 89.86563 | 35821 ft | 478 kts | 304° |
| 2026-05-05 21:58 | 20.49319 | 89.80899 | 35822 ft | 477 kts | 303° |
| 2026-05-05 21:58 | 20.53312 | 89.75238 | 35812 ft | 477 kts | 303° |
| 2026-05-05 21:59 | 20.57302 | 89.69576 | 35820 ft | 477 kts | 303° |
| 2026-05-05 21:59 | 20.61288 | 89.63915 | 35817 ft | 477 kts | 303° |
| 2026-05-05 22:00 | 20.65271 | 89.58251 | 35813 ft | 477 kts | 303° |
| 2026-05-05 22:00 | 20.69234 | 89.52611 | 35819 ft | 477 kts | 303° |
| 2026-05-05 22:01 | 20.73217 | 89.46938 | 35811 ft | 477 kts | 303° |
| 2026-05-05 22:01 | 20.77182 | 89.41283 | 35818 ft | 476 kts | 303° |
| 2026-05-05 22:02 | 20.81152 | 89.35616 | 35818 ft | 476 kts | 303° |
| 2026-05-05 22:02 | 20.85126 | 89.29939 | 35820 ft | 476 kts | 303° |
| 2026-05-05 22:03 | 20.89166 | 89.24327 | 35821 ft | 478 kts | 308° |
| 2026-05-05 22:03 | 20.94281 | 89.19713 | 35820 ft | 488 kts | 325° |
| 2026-05-05 22:04 | 21.00448 | 89.16643 | 35810 ft | 494 kts | 333° |
| 2026-05-05 22:04 | 21.06867 | 89.13938 | 35820 ft | 495 kts | 334° |
| 2026-05-05 22:05 | 21.13295 | 89.11267 | 35815 ft | 495 kts | 334° |
| 2026-05-05 22:05 | 21.19699 | 89.08566 | 35811 ft | 494 kts | 334° |
| 2026-05-05 22:06 | 21.26093 | 89.05842 | 35811 ft | 494 kts | 333° |
| 2026-05-05 22:06 | 21.32475 | 89.03115 | 35824 ft | 494 kts | 333° |
| 2026-05-05 22:07 | 21.38813 | 89.00406 | 35817 ft | 493 kts | 333° |
| 2026-05-05 22:07 | 21.45215 | 88.97667 | 35812 ft | 493 kts | 333° |
| 2026-05-05 22:08 | 21.51586 | 88.94941 | 35816 ft | 493 kts | 333° |
| 2026-05-05 22:08 | 21.57919 | 88.92228 | 35817 ft | 492 kts | 333° |
| 2026-05-05 22:09 | 21.64303 | 88.89491 | 35817 ft | 492 kts | 333° |
| 2026-05-05 22:09 | 21.70659 | 88.86762 | 35815 ft | 492 kts | 333° |
| 2026-05-05 22:10 | 21.77020 | 88.84029 | 35816 ft | 492 kts | 333° |
| 2026-05-05 22:10 | 21.83348 | 88.81308 | 35817 ft | 492 kts | 333° |
| 2026-05-05 22:11 | 21.89700 | 88.78573 | 35817 ft | 492 kts | 333° |
| 2026-05-05 22:11 | 21.96059 | 88.75833 | 35816 ft | 492 kts | 333° |
| 2026-05-05 22:12 | 22.02432 | 88.73084 | 35817 ft | 492 kts | 333° |
| 2026-05-05 22:12 | 22.08759 | 88.70353 | 35818 ft | 492 kts | 333° |
| 2026-05-05 22:13 | 22.15117 | 88.67605 | 35817 ft | 492 kts | 333° |
| 2026-05-05 22:13 | 22.21487 | 88.64850 | 35817 ft | 493 kts | 333° |
| 2026-05-05 22:14 | 22.27864 | 88.62088 | 35820 ft | 493 kts | 333° |
| 2026-05-05 22:14 | 22.34192 | 88.59346 | 35818 ft | 493 kts | 333° |
| 2026-05-05 22:15 | 22.40559 | 88.56584 | 35821 ft | 493 kts | 333° |
| 2026-05-05 22:15 | 22.46934 | 88.53816 | 35823 ft | 493 kts | 333° |
| 2026-05-05 22:16 | 22.53298 | 88.51049 | 35827 ft | 493 kts | 333° |
| 2026-05-05 22:16 | 22.59678 | 88.48273 | 35830 ft | 493 kts | 333° |
| 2026-05-05 22:17 | 22.65662 | 88.44916 | 35829 ft | 482 kts | 319° |
| 2026-05-05 22:17 | 22.70367 | 88.39932 | 35830 ft | 469 kts | 301° |
| 2026-05-05 22:18 | 22.73949 | 88.34030 | 35828 ft | 467 kts | 298° |
| 2026-05-05 22:18 | 22.77346 | 88.28012 | 35824 ft | 467 kts | 297° |
| 2026-05-05 22:19 | 22.80714 | 88.22036 | 35825 ft | 467 kts | 298° |
| 2026-05-05 22:19 | 22.84127 | 88.16038 | 35822 ft | 467 kts | 298° |
| 2026-05-05 22:20 | 22.87549 | 88.10044 | 35821 ft | 467 kts | 298° |
| 2026-05-05 22:20 | 22.90970 | 88.04048 | 35823 ft | 467 kts | 298° |
| 2026-05-05 22:21 | 22.94384 | 87.98057 | 35823 ft | 466 kts | 298° |
| 2026-05-05 22:21 | 22.97792 | 87.92067 | 35828 ft | 466 kts | 297° |
| 2026-05-05 22:22 | 23.01174 | 87.86114 | 35827 ft | 466 kts | 297° |
| 2026-05-05 22:22 | 23.04583 | 87.80106 | 35827 ft | 466 kts | 297° |
| 2026-05-05 22:23 | 23.07980 | 87.74114 | 35828 ft | 466 kts | 297° |
| 2026-05-05 22:23 | 23.11373 | 87.68122 | 35830 ft | 466 kts | 297° |
| 2026-05-05 22:24 | 23.14767 | 87.62121 | 35829 ft | 466 kts | 297° |
| 2026-05-05 22:24 | 23.18158 | 87.56119 | 35832 ft | 465 kts | 297° |
| 2026-05-05 22:25 | 23.21543 | 87.50120 | 35836 ft | 465 kts | 297° |
| 2026-05-05 22:25 | 23.24910 | 87.44146 | 35834 ft | 465 kts | 297° |
| 2026-05-05 22:26 | 23.28283 | 87.38154 | 35836 ft | 465 kts | 297° |
| 2026-05-05 22:26 | 23.31657 | 87.32152 | 35838 ft | 465 kts | 297° |
| 2026-05-05 22:27 | 23.35015 | 87.26174 | 35839 ft | 464 kts | 297° |
| 2026-05-05 22:27 | 23.38385 | 87.20166 | 35837 ft | 464 kts | 297° |
| 2026-05-05 22:28 | 23.41755 | 87.14151 | 35839 ft | 464 kts | 297° |
| 2026-05-05 22:28 | 23.45100 | 87.08174 | 35843 ft | 464 kts | 297° |
| 2026-05-05 22:29 | 23.48458 | 87.02168 | 35842 ft | 464 kts | 297° |
| 2026-05-05 22:29 | 23.51824 | 86.96160 | 35845 ft | 464 kts | 297° |
| 2026-05-05 22:30 | 23.55182 | 86.90153 | 35851 ft | 464 kts | 297° |
| 2026-05-05 22:30 | 23.58544 | 86.84130 | 35853 ft | 464 kts | 297° |
| 2026-05-05 22:31 | 23.61885 | 86.78141 | 35855 ft | 464 kts | 297° |
| 2026-05-05 22:31 | 23.65247 | 86.72107 | 35853 ft | 464 kts | 297° |
| 2026-05-05 22:32 | 23.68032 | 86.67104 | 35859 ft | 464 kts | 297° |
| 2026-05-05 22:32 | 23.71928 | 86.60094 | 35856 ft | 464 kts | 297° |
| 2026-05-05 22:33 | 23.74735 | 86.55039 | 35863 ft | 464 kts | 297° |
| 2026-05-05 22:33 | 23.78081 | 86.49007 | 35863 ft | 464 kts | 297° |
| 2026-05-05 22:34 | 23.81412 | 86.42994 | 35869 ft | 464 kts | 297° |
| 2026-05-05 22:34 | 23.84988 | 86.37090 | 35869 ft | 467 kts | 300° |
| 2026-05-05 22:35 | 23.88760 | 86.31296 | 35869 ft | 467 kts | 301° |
| 2026-05-05 22:35 | 23.92496 | 86.25499 | 35873 ft | 466 kts | 300° |
| 2026-05-05 22:36 | 23.96170 | 86.19706 | 35877 ft | 466 kts | 300° |
| 2026-05-05 22:36 | 23.99819 | 86.13914 | 35870 ft | 456 kts | 300° |
| 2026-05-05 22:37 | 24.03391 | 86.08237 | 35873 ft | 452 kts | 300° |
| 2026-05-05 22:37 | 24.06957 | 86.02555 | 35876 ft | 452 kts | 300° |
| 2026-05-05 22:38 | 24.10517 | 85.96881 | 35878 ft | 452 kts | 300° |
| 2026-05-05 22:38 | 24.14059 | 85.91234 | 35878 ft | 452 kts | 300° |
| 2026-05-05 22:39 | 24.17614 | 85.85558 | 35879 ft | 452 kts | 300° |
| 2026-05-05 22:39 | 24.21167 | 85.79881 | 35875 ft | 451 kts | 300° |
| 2026-05-05 22:40 | 24.24716 | 85.74202 | 35878 ft | 451 kts | 299° |
| 2026-05-05 22:40 | 24.28260 | 85.68524 | 35872 ft | 451 kts | 299° |
| 2026-05-05 22:41 | 24.31778 | 85.62883 | 35870 ft | 451 kts | 299° |
| 2026-05-05 22:41 | 24.35323 | 85.57191 | 35866 ft | 451 kts | 299° |
| 2026-05-05 22:42 | 24.38859 | 85.51508 | 35864 ft | 451 kts | 299° |
| 2026-05-05 22:42 | 24.42371 | 85.45856 | 35858 ft | 451 kts | 299° |
| 2026-05-05 22:43 | 24.45903 | 85.40167 | 35854 ft | 450 kts | 299° |
| 2026-05-05 22:43 | 24.49429 | 85.34478 | 35851 ft | 450 kts | 299° |
| 2026-05-05 22:44 | 24.52952 | 85.28789 | 35846 ft | 450 kts | 299° |
| 2026-05-05 22:44 | 24.56473 | 85.23097 | 35845 ft | 450 kts | 299° |
| 2026-05-05 22:45 | 24.59991 | 85.17402 | 35836 ft | 450 kts | 298° |
| 2026-05-05 22:45 | 24.63506 | 85.11706 | 35829 ft | 450 kts | 298° |
| 2026-05-05 22:46 | 24.67001 | 85.06035 | 35828 ft | 450 kts | 298° |
| 2026-05-05 22:46 | 24.70517 | 85.00324 | 35822 ft | 450 kts | 298° |
| 2026-05-05 22:47 | 24.73892 | 84.94532 | 35821 ft | 446 kts | 292° |
| 2026-05-05 22:47 | 24.76328 | 84.88349 | 35815 ft | 442 kts | 287° |
| 2026-05-05 22:48 | 24.78552 | 84.82031 | 35812 ft | 442 kts | 287° |
| 2026-05-05 22:48 | 24.80739 | 84.75699 | 35810 ft | 442 kts | 287° |
| 2026-05-05 22:49 | 24.82941 | 84.69350 | 35806 ft | 442 kts | 287° |
| 2026-05-05 22:49 | 24.85142 | 84.63023 | 35800 ft | 443 kts | 287° |
| 2026-05-05 22:50 | 24.87332 | 84.56731 | 35802 ft | 443 kts | 287° |
| 2026-05-05 22:50 | 24.89536 | 84.50385 | 35793 ft | 443 kts | 287° |
| 2026-05-05 22:51 | 24.91737 | 84.44041 | 35796 ft | 443 kts | 287° |
| 2026-05-05 22:51 | 24.93919 | 84.37736 | 35790 ft | 443 kts | 287° |
| 2026-05-05 22:52 | 24.96119 | 84.31372 | 35797 ft | 443 kts | 287° |
| 2026-05-05 22:52 | 24.98311 | 84.25019 | 35786 ft | 443 kts | 287° |
| 2026-05-05 22:53 | 25.00488 | 84.18700 | 35790 ft | 443 kts | 287° |
| 2026-05-05 22:53 | 25.02677 | 84.12336 | 35783 ft | 443 kts | 287° |
| 2026-05-05 22:54 | 25.04860 | 84.05980 | 35796 ft | 443 kts | 287° |
| 2026-05-05 22:54 | 25.07042 | 83.99617 | 35787 ft | 443 kts | 287° |
| 2026-05-05 22:55 | 25.09212 | 83.93280 | 35784 ft | 444 kts | 287° |
| 2026-05-05 22:55 | 25.11392 | 83.86901 | 35799 ft | 444 kts | 287° |
| 2026-05-05 22:56 | 25.13566 | 83.80530 | 35797 ft | 444 kts | 287° |
| 2026-05-05 22:56 | 25.15745 | 83.74133 | 35800 ft | 444 kts | 287° |
| 2026-05-05 22:57 | 25.17919 | 83.67745 | 35792 ft | 445 kts | 287° |
| 2026-05-05 22:57 | 25.20081 | 83.61376 | 35798 ft | 445 kts | 287° |
| 2026-05-05 22:58 | 25.22264 | 83.54939 | 35800 ft | 445 kts | 287° |
| 2026-05-05 22:58 | 25.24422 | 83.48564 | 35799 ft | 445 kts | 287° |
| 2026-05-05 22:59 | 25.26589 | 83.42151 | 35803 ft | 445 kts | 287° |
| 2026-05-05 22:59 | 25.28749 | 83.35748 | 35803 ft | 445 kts | 287° |
| 2026-05-05 23:00 | 25.31982 | 83.26148 | 35806 ft | 445 kts | 287° |
| 2026-05-05 23:00 | 25.34140 | 83.19726 | 35807 ft | 445 kts | 287° |
| 2026-05-05 23:01 | 25.36292 | 83.13309 | 35805 ft | 445 kts | 287° |
| 2026-05-05 23:01 | 25.38444 | 83.06884 | 35809 ft | 445 kts | 287° |
| 2026-05-05 23:02 | 25.40592 | 83.00460 | 35807 ft | 445 kts | 287° |
| 2026-05-05 23:02 | 25.42736 | 82.94037 | 35811 ft | 445 kts | 287° |
| 2026-05-05 23:03 | 25.44955 | 82.87679 | 35815 ft | 447 kts | 291° |
| 2026-05-05 23:03 | 25.48249 | 82.81767 | 35812 ft | 453 kts | 300° |
| 2026-05-05 23:04 | 25.51987 | 82.76169 | 35814 ft | 455 kts | 302° |
| 2026-05-05 23:04 | 25.55801 | 82.70588 | 35816 ft | 455 kts | 302° |
| 2026-05-05 23:05 | 25.59615 | 82.64981 | 35811 ft | 455 kts | 301° |
| 2026-05-05 23:05 | 25.63410 | 82.59365 | 35812 ft | 455 kts | 301° |
| 2026-05-05 23:06 | 25.67182 | 82.53765 | 35809 ft | 455 kts | 301° |
| 2026-05-05 23:06 | 25.70970 | 82.48133 | 35809 ft | 455 kts | 301° |
| 2026-05-05 23:07 | 25.74758 | 82.42495 | 35811 ft | 455 kts | 301° |
| 2026-05-05 23:07 | 25.78540 | 82.36863 | 35811 ft | 456 kts | 301° |
| 2026-05-05 23:08 | 25.82326 | 82.31216 | 35808 ft | 456 kts | 301° |
| 2026-05-05 23:08 | 25.86116 | 82.25555 | 35808 ft | 456 kts | 301° |
| 2026-05-05 23:09 | 25.89871 | 82.19941 | 35811 ft | 456 kts | 301° |
| 2026-05-05 23:09 | 25.93653 | 82.14281 | 35811 ft | 456 kts | 301° |
| 2026-05-05 23:10 | 25.97434 | 82.08613 | 35810 ft | 456 kts | 301° |
| 2026-05-05 23:10 | 26.01210 | 82.02947 | 35808 ft | 456 kts | 301° |
| 2026-05-05 23:11 | 26.04994 | 81.97264 | 35810 ft | 456 kts | 301° |
| 2026-05-05 23:11 | 26.08772 | 81.91580 | 35808 ft | 456 kts | 301° |
| 2026-05-05 23:12 | 26.12544 | 81.85898 | 35809 ft | 456 kts | 301° |
| 2026-05-05 23:12 | 26.16290 | 81.80249 | 35812 ft | 456 kts | 301° |
| 2026-05-05 23:13 | 26.20057 | 81.74560 | 35811 ft | 456 kts | 302° |
| 2026-05-05 23:13 | 26.23828 | 81.68859 | 35813 ft | 456 kts | 302° |
| 2026-05-05 23:14 | 26.27565 | 81.63202 | 35809 ft | 456 kts | 302° |
| 2026-05-05 23:14 | 26.31324 | 81.57506 | 35804 ft | 455 kts | 302° |
| 2026-05-05 23:15 | 26.35078 | 81.51810 | 35806 ft | 455 kts | 302° |
| 2026-05-05 23:15 | 26.38829 | 81.46111 | 35804 ft | 455 kts | 302° |
| 2026-05-05 23:16 | 26.42548 | 81.40453 | 35806 ft | 454 kts | 302° |
| 2026-05-05 23:16 | 26.46290 | 81.34755 | 35810 ft | 454 kts | 302° |
| 2026-05-05 23:17 | 26.50022 | 81.29064 | 35808 ft | 454 kts | 302° |
| 2026-05-05 23:17 | 26.53729 | 81.23403 | 35793 ft | 454 kts | 302° |
| 2026-05-05 23:18 | 26.57452 | 81.17711 | 35804 ft | 453 kts | 302° |
| 2026-05-05 23:18 | 26.61168 | 81.12024 | 35814 ft | 453 kts | 302° |
| 2026-05-05 23:19 | 26.64879 | 81.06336 | 35819 ft | 453 kts | 302° |
| 2026-05-05 23:19 | 26.68589 | 81.00642 | 35827 ft | 453 kts | 302° |
| 2026-05-05 23:20 | 26.71673 | 80.95905 | 35834 ft | 452 kts | 302° |
| 2026-05-05 23:20 | 26.75977 | 80.89285 | 35830 ft | 452 kts | 302° |
| 2026-05-05 23:21 | 26.79243 | 80.84667 | 35830 ft | 455 kts | 306° |
| 2026-05-05 23:21 | 26.83437 | 80.79354 | 35831 ft | 456 kts | 307° |
| 2026-05-05 23:22 | 26.87647 | 80.74011 | 35825 ft | 455 kts | 306° |
| 2026-05-05 23:22 | 26.91768 | 80.68661 | 35818 ft | 455 kts | 306° |
| 2026-05-05 23:23 | 26.95887 | 80.63252 | 35812 ft | 455 kts | 306° |
| 2026-05-05 23:23 | 26.99995 | 80.57846 | 35806 ft | 455 kts | 306° |
| 2026-05-05 23:24 | 27.04099 | 80.52443 | 35808 ft | 455 kts | 306° |
| 2026-05-05 23:24 | 27.08187 | 80.47059 | 35806 ft | 455 kts | 306° |
| 2026-05-05 23:25 | 27.12295 | 80.41640 | 35814 ft | 455 kts | 306° |
| 2026-05-05 23:25 | 27.16401 | 80.36220 | 35813 ft | 455 kts | 306° |
| 2026-05-05 23:26 | 27.20501 | 80.30799 | 35811 ft | 455 kts | 306° |
| 2026-05-05 23:26 | 27.24599 | 80.25374 | 35814 ft | 455 kts | 306° |
| 2026-05-05 23:27 | 27.28663 | 80.19987 | 35814 ft | 455 kts | 306° |
| 2026-05-05 23:27 | 27.32756 | 80.14556 | 35815 ft | 455 kts | 306° |
| 2026-05-05 23:28 | 27.36844 | 80.09124 | 35810 ft | 454 kts | 306° |
| 2026-05-05 23:28 | 27.40921 | 80.03700 | 35813 ft | 454 kts | 306° |
| 2026-05-05 23:29 | 27.44999 | 79.98268 | 35814 ft | 454 kts | 306° |
| 2026-05-05 23:29 | 27.49048 | 79.92868 | 35815 ft | 453 kts | 306° |
| 2026-05-05 23:30 | 27.53121 | 79.87429 | 35820 ft | 453 kts | 306° |
| 2026-05-05 23:30 | 27.57181 | 79.82001 | 35816 ft | 453 kts | 306° |
| 2026-05-05 23:31 | 27.61240 | 79.76567 | 35817 ft | 453 kts | 306° |
| 2026-05-05 23:31 | 27.65295 | 79.71132 | 35819 ft | 452 kts | 306° |
| 2026-05-05 23:32 | 27.69109 | 79.65518 | 35821 ft | 447 kts | 297° |
| 2026-05-05 23:32 | 27.71809 | 79.59230 | 35822 ft | 444 kts | 291° |
| 2026-05-05 23:33 | 27.74176 | 79.52835 | 35823 ft | 444 kts | 290° |
| 2026-05-05 23:33 | 27.76514 | 79.46374 | 35823 ft | 444 kts | 290° |
| 2026-05-05 23:34 | 27.78859 | 79.39925 | 35825 ft | 444 kts | 290° |
| 2026-05-05 23:34 | 27.81213 | 79.33482 | 35827 ft | 444 kts | 290° |
| 2026-05-05 23:35 | 27.83572 | 79.27026 | 35824 ft | 444 kts | 290° |
| 2026-05-05 23:35 | 27.85907 | 79.20624 | 35824 ft | 444 kts | 290° |
| 2026-05-05 23:36 | 27.88257 | 79.14167 | 35827 ft | 444 kts | 290° |
| 2026-05-05 23:36 | 27.90603 | 79.07711 | 35831 ft | 443 kts | 290° |
| 2026-05-05 23:37 | 27.92947 | 79.01249 | 35830 ft | 443 kts | 290° |
| 2026-05-05 23:37 | 27.95271 | 78.94830 | 35828 ft | 443 kts | 290° |
| 2026-05-05 23:38 | 27.97602 | 78.88380 | 35835 ft | 443 kts | 290° |
| 2026-05-05 23:38 | 27.99936 | 78.81911 | 35834 ft | 443 kts | 290° |
| 2026-05-05 23:39 | 28.02263 | 78.75450 | 35833 ft | 443 kts | 290° |
| 2026-05-05 23:39 | 28.04591 | 78.68976 | 35834 ft | 443 kts | 290° |
| 2026-05-05 23:40 | 28.06914 | 78.62507 | 35839 ft | 443 kts | 290° |
| 2026-05-05 23:40 | 28.09233 | 78.56033 | 35839 ft | 443 kts | 290° |
| 2026-05-05 23:41 | 28.11533 | 78.49606 | 35837 ft | 443 kts | 290° |
| 2026-05-05 23:41 | 28.13842 | 78.43138 | 35837 ft | 443 kts | 290° |
| 2026-05-05 23:42 | 28.16154 | 78.36653 | 35839 ft | 443 kts | 290° |
| 2026-05-05 23:42 | 28.18467 | 78.30153 | 35840 ft | 443 kts | 290° |
| 2026-05-05 23:43 | 28.20769 | 78.23673 | 35842 ft | 443 kts | 290° |
| 2026-05-05 23:43 | 28.23074 | 78.17171 | 35845 ft | 443 kts | 290° |
| 2026-05-05 23:44 | 28.25360 | 78.10714 | 35842 ft | 444 kts | 290° |
| 2026-05-05 23:44 | 28.27657 | 78.04214 | 35843 ft | 444 kts | 290° |
| 2026-05-05 23:45 | 28.29951 | 77.97710 | 35843 ft | 444 kts | 290° |
| 2026-05-05 23:45 | 28.32240 | 77.91208 | 35845 ft | 444 kts | 290° |
| 2026-05-05 23:46 | 28.34527 | 77.84702 | 35850 ft | 444 kts | 290° |
| 2026-05-05 23:46 | 28.36800 | 77.78224 | 35849 ft | 443 kts | 290° |
| 2026-05-05 23:47 | 28.39080 | 77.71713 | 35849 ft | 443 kts | 290° |
| 2026-05-05 23:47 | 28.41195 | 77.65133 | 35850 ft | 443 kts | 287° |
| 2026-05-05 23:48 | 28.43005 | 77.58437 | 35848 ft | 443 kts | 286° |
| 2026-05-05 23:48 | 28.44805 | 77.51779 | 35851 ft | 443 kts | 287° |
| 2026-05-05 23:49 | 28.46670 | 77.45083 | 35855 ft | 443 kts | 287° |
| 2026-05-05 23:49 | 28.48551 | 77.38413 | 35864 ft | 443 kts | 287° |
| 2026-05-05 23:50 | 28.50429 | 77.31747 | 35871 ft | 443 kts | 287° |
| 2026-05-05 23:50 | 28.52293 | 77.25110 | 35882 ft | 443 kts | 287° |
| 2026-05-05 23:51 | 28.54162 | 77.18436 | 35884 ft | 443 kts | 287° |
| 2026-05-05 23:51 | 28.56029 | 77.11752 | 35882 ft | 443 kts | 287° |
| 2026-05-05 23:52 | 28.57433 | 77.04930 | 35884 ft | 442 kts | 281° |
| 2026-05-05 23:52 | 28.58584 | 76.98090 | 35880 ft | 442 kts | 281° |
| 2026-05-05 23:53 | 28.59706 | 76.91200 | 35874 ft | 442 kts | 281° |
| 2026-05-05 23:53 | 28.60825 | 76.84325 | 35868 ft | 442 kts | 281° |
| 2026-05-05 23:54 | 28.61952 | 76.77424 | 35865 ft | 442 kts | 281° |
| 2026-05-05 23:54 | 28.63076 | 76.70535 | 35858 ft | 442 kts | 281° |
| 2026-05-05 23:55 | 28.64196 | 76.63650 | 35863 ft | 442 kts | 281° |
| 2026-05-05 23:55 | 28.65258 | 76.56795 | 35858 ft | 442 kts | 280° |
| 2026-05-05 23:56 | 28.66239 | 76.49876 | 35858 ft | 442 kts | 279° |
| 2026-05-05 23:56 | 28.67218 | 76.42956 | 35859 ft | 442 kts | 280° |
| 2026-05-05 23:57 | 28.68210 | 76.36032 | 35857 ft | 442 kts | 280° |
| 2026-05-05 23:57 | 28.69202 | 76.29128 | 35858 ft | 442 kts | 280° |
| 2026-05-05 23:58 | 28.70192 | 76.22217 | 35860 ft | 442 kts | 280° |
| 2026-05-05 23:58 | 28.71172 | 76.15351 | 35862 ft | 442 kts | 280° |
| 2026-05-05 23:59 | 28.72157 | 76.08419 | 35865 ft | 442 kts | 280° |
| 2026-05-05 23:59 | 28.73131 | 76.01534 | 35861 ft | 442 kts | 280° |
| 2026-05-06 00:00 | 28.74106 | 75.94620 | 35861 ft | 442 kts | 280° |
| 2026-05-06 00:00 | 28.74781 | 75.87667 | 35861 ft | 443 kts | 272° |
| 2026-05-06 00:01 | 28.74388 | 75.80624 | 35862 ft | 445 kts | 268° |
| 2026-05-06 00:01 | 28.73773 | 75.73605 | 35862 ft | 445 kts | 267° |
| 2026-05-06 00:02 | 28.73131 | 75.66620 | 35862 ft | 445 kts | 267° |
| 2026-05-06 00:02 | 28.72499 | 75.59604 | 35865 ft | 445 kts | 267° |
| 2026-05-06 00:03 | 28.71876 | 75.52585 | 35863 ft | 445 kts | 267° |
| 2026-05-06 00:03 | 28.71251 | 75.45566 | 35864 ft | 445 kts | 267° |
| 2026-05-06 00:04 | 28.70626 | 75.38594 | 35861 ft | 445 kts | 267° |
| 2026-05-06 00:04 | 28.69991 | 75.31567 | 35862 ft | 445 kts | 267° |
| 2026-05-06 00:05 | 28.69035 | 75.21049 | 35861 ft | 445 kts | 267° |
| 2026-05-06 00:06 | 28.68392 | 75.14045 | 35865 ft | 445 kts | 267° |
| 2026-05-06 00:06 | 28.67751 | 75.07078 | 35862 ft | 444 kts | 267° |
| 2026-05-06 00:07 | 28.67102 | 75.00070 | 35861 ft | 444 kts | 267° |
| 2026-05-06 00:07 | 28.66449 | 74.93070 | 35860 ft | 444 kts | 267° |
| 2026-05-06 00:08 | 28.65904 | 74.87250 | 35859 ft | 444 kts | 267° |
| 2026-05-06 00:08 | 28.65245 | 74.80249 | 35858 ft | 444 kts | 267° |
| 2026-05-06 00:09 | 28.64583 | 74.73255 | 35857 ft | 444 kts | 267° |
| 2026-05-06 00:09 | 28.63917 | 74.66262 | 35857 ft | 444 kts | 268° |
| 2026-05-06 00:10 | 28.63253 | 74.59324 | 35857 ft | 444 kts | 267° |
| 2026-05-06 00:10 | 28.62580 | 74.52328 | 35856 ft | 444 kts | 268° |
| 2026-05-06 00:11 | 28.61905 | 74.45349 | 35853 ft | 443 kts | 268° |
| 2026-05-06 00:11 | 28.61225 | 74.38360 | 35855 ft | 443 kts | 268° |
| 2026-05-06 00:12 | 28.60543 | 74.31392 | 35854 ft | 443 kts | 268° |
| 2026-05-06 00:12 | 28.59855 | 74.24406 | 35855 ft | 443 kts | 268° |
| 2026-05-06 00:13 | 28.59171 | 74.17487 | 35851 ft | 443 kts | 268° |
| 2026-05-06 00:13 | 28.58479 | 74.10524 | 35857 ft | 442 kts | 268° |
| 2026-05-06 00:14 | 28.57783 | 74.03559 | 35851 ft | 442 kts | 268° |
| 2026-05-06 00:14 | 28.57084 | 73.96600 | 35855 ft | 442 kts | 268° |
| 2026-05-06 00:15 | 28.56383 | 73.89656 | 35849 ft | 442 kts | 268° |
| 2026-05-06 00:15 | 28.55678 | 73.82715 | 35841 ft | 442 kts | 268° |
| 2026-05-06 00:16 | 28.55009 | 73.75803 | 35839 ft | 440 kts | 270° |
| 2026-05-06 00:16 | 28.54716 | 73.68850 | 35839 ft | 439 kts | 272° |
| 2026-05-06 00:17 | 28.54526 | 73.61925 | 35839 ft | 439 kts | 272° |
| 2026-05-06 00:17 | 28.54276 | 73.54982 | 35845 ft | 439 kts | 271° |
| 2026-05-06 00:18 | 28.53982 | 73.48051 | 35842 ft | 439 kts | 271° |
| 2026-05-06 00:18 | 28.53676 | 73.41130 | 35842 ft | 439 kts | 271° |
| 2026-05-06 00:19 | 28.53368 | 73.34236 | 35839 ft | 438 kts | 271° |
| 2026-05-06 00:19 | 28.53057 | 73.27305 | 35836 ft | 438 kts | 271° |
| 2026-05-06 00:20 | 28.52742 | 73.20373 | 35835 ft | 438 kts | 271° |
| 2026-05-06 00:20 | 28.52425 | 73.13451 | 35837 ft | 438 kts | 271° |